Time;durP1;ratioP1;P1;durP2;ratioP2;P2;SDS_P1;SDS_P2;PMS_P1;PMS_P2;Temp;Humidity;BMP_temperature;BMP_pressure;BME280_temperature;BME280_humidity;BME280_pressure;Samples;Min_cycle;Max_cycle;Signal;HPM_P1;HPM_P2
2021/07/25 00:00:12;;;;;;;2.00;1.77;;;;;;;17.76;87.88;95715.19;5199544;57;20168;-72
2021/07/25 00:05:15;;;;;;;2.88;1.73;;;;;;;17.75;87.54;95706.03;5199302;57;20607;-72
2021/07/25 00:10:17;;;;;;;3.53;2.03;;;;;;;17.76;87.73;95699.19;5200042;56;20119;-72
2021/07/25 00:15:20;;;;;;;2.47;1.83;;;;;;;17.60;88.57;95690.97;5199645;57;20175;-73
2021/07/25 00:20:22;;;;;;;1.88;1.70;;;;;;;17.53;88.99;95674.78;5190973;57;20592;-72
2021/07/25 00:25:25;;;;;;;2.45;1.92;;;;;;;17.44;88.89;95678.66;5200143;57;20143;-72
2021/07/25 00:30:28;;;;;;;4.13;1.85;;;;;;;17.21;88.88;95689.28;5200042;57;20575;-72
2021/07/25 00:35:30;;;;;;;4.18;1.90;;;;;;;17.16;88.94;95676.13;5199464;56;20118;-72
2021/07/25 00:40:43;;;;;;;3.00;2.13;;;;;;;17.35;88.82;95690.16;5190550;57;20132;-72
2021/07/25 00:45:46;;;;;;;4.25;2.03;;;;;;;17.13;89.54;95691.13;5190599;57;20123;-73
2021/07/25 00:50:48;;;;;;;6.03;2.15;;;;;;;17.03;90.59;95684.34;5199469;56;20133;-72
2021/07/25 00:55:51;;;;;;;2.88;2.28;;;;;;;17.16;90.29;95708.88;5198946;57;20119;-72
2021/07/25 01:00:54;;;;;;;2.30;2.05;;;;;;;17.17;90.15;95696.44;5199328;56;20155;-72
2021/07/25 01:06:18;;;;;;;6.47;2.17;;;;;;;17.30;90.04;95665.09;5198897;56;20897;-72
2021/07/25 01:11:20;;;;;;;15.95;2.50;;;;;;;17.35;89.91;95653.09;5199512;57;20181;-72
2021/07/25 01:16:23;;;;;;;3.50;2.10;;;;;;;17.13;90.71;95626.94;5201446;57;20230;-72
2021/07/25 01:21:25;;;;;;;3.30;2.05;;;;;;;17.20;91.18;95629.16;5201928;57;20149;-72
2021/07/25 01:26:30;;;;;;;4.85;2.30;;;;;;;17.34;91.10;95632.81;5193675;57;20142;-72
2021/07/25 01:31:40;;;;;;;8.13;2.22;;;;;;;17.48;90.94;95656.03;5195049;57;20583;-73
2021/07/25 01:36:43;;;;;;;9.07;2.30;;;;;;;17.48;89.94;95639.28;5193354;57;20136;-72
2021/07/25 01:41:45;;;;;;;2.75;2.10;;;;;;;17.42;89.98;95635.75;5192556;57;20131;-73
2021/07/25 01:46:48;;;;;;;6.00;2.17;;;;;;;17.29;90.80;95627.28;5185342;57;20124;-72
2021/07/25 01:51:50;;;;;;;6.15;2.25;;;;;;;17.19;90.93;95619.25;5193331;56;20137;-73
2021/07/25 01:56:52;;;;;;;2.67;2.15;;;;;;;17.19;90.98;95608.06;5193614;57;20127;-72
2021/07/25 02:01:54;;;;;;;7.03;1.95;;;;;;;17.30;90.82;95628.81;5196976;57;20127;-73
2021/07/25 02:06:57;;;;;;;5.55;2.25;;;;;;;17.08;92.49;95650.06;5201393;56;20695;-73
2021/07/25 02:12:00;;;;;;;2.88;2.55;;;;;;;17.42;91.91;95672.06;5201679;57;20689;-72
2021/07/25 02:17:04;;;;;;;6.95;2.47;;;;;;;17.44;92.21;95677.88;5201614;57;20119;-73
2021/07/25 02:22:06;;;;;;;3.47;2.35;;;;;;;17.44;91.37;95680.69;5201402;56;20127;-72
2021/07/25 02:27:09;;;;;;;7.55;2.50;;;;;;;17.34;92.00;95646.78;5200737;56;20557;-72
2021/07/25 02:32:11;;;;;;;6.50;2.33;;;;;;;17.61;91.04;95642.19;5201321;57;20137;-72
2021/07/25 02:37:14;;;;;;;3.05;2.70;;;;;;;17.26;92.75;95651.41;5200617;57;20114;-72
2021/07/25 02:42:16;;;;;;;5.65;2.70;;;;;;;17.50;91.99;95659.06;5201376;57;20149;-72
2021/07/25 02:47:19;;;;;;;3.85;3.08;;;;;;;17.48;92.39;95707.03;5200778;56;20128;-72
2021/07/25 02:52:22;;;;;;;11.43;3.05;;;;;;;17.60;91.72;95710.50;5201114;57;20561;-73
2021/07/25 02:57:25;;;;;;;4.55;2.72;;;;;;;17.55;91.52;95717.69;5200772;57;20132;-73
2021/07/25 03:02:28;;;;;;;6.50;3.38;;;;;;;17.41;92.22;95702.06;5200884;57;20613;-73
2021/07/25 03:07:31;;;;;;;5.45;3.47;;;;;;;17.26;92.58;95712.09;5200620;57;20248;-72
2021/07/25 03:12:34;;;;;;;6.65;2.78;;;;;;;17.57;91.83;95725.56;5191999;57;20128;-71
2021/07/25 03:17:37;;;;;;;3.63;3.20;;;;;;;17.45;91.08;95724.88;5200606;57;20119;-72
2021/07/25 03:22:39;;;;;;;3.40;3.00;;;;;;;17.47;90.65;95711.13;5191881;57;20669;-71
2021/07/25 03:27:43;;;;;;;4.80;2.88;;;;;;;17.61;90.52;95696.03;5200601;56;20141;-73
2021/07/25 03:32:45;;;;;;;5.40;2.80;;;;;;;17.73;90.46;95711.38;5200707;57;20131;-74
2021/07/25 03:37:48;;;;;;;6.53;2.90;;;;;;;17.76;90.38;95710.34;5199849;57;20655;-73
2021/07/25 03:42:52;;;;;;;8.57;2.83;;;;;;;17.72;90.42;95681.94;5191544;57;20220;-72
2021/07/25 03:47:54;;;;;;;6.65;2.72;;;;;;;17.73;90.35;95689.03;5199762;56;20123;-72
2021/07/25 03:52:57;;;;;;;6.68;3.17;;;;;;;17.77;90.87;95694.34;5200517;57;20123;-72
2021/07/25 03:57:59;;;;;;;5.93;3.58;;;;;;;17.89;91.36;95695.72;5200136;56;20145;-72
2021/07/25 04:03:01;;;;;;;4.28;2.85;;;;;;;17.91;90.54;95721.88;5200245;57;20150;-71
2021/07/25 04:08:11;;;;;;;7.85;3.00;;;;;;;17.96;90.48;95725.16;5200084;57;20131;-72
2021/07/25 04:13:13;;;;;;;7.07;3.22;;;;;;;17.92;90.22;95720.59;5200026;56;20123;-72
2021/07/25 04:18:16;;;;;;;7.15;3.47;;;;;;;17.97;90.62;95732.22;5199739;56;20110;-72
2021/07/25 04:23:18;;;;;;;4.15;3.25;;;;;;;17.93;90.71;95749.31;5199686;57;20141;-72
2021/07/25 04:28:21;;;;;;;5.00;3.22;;;;;;;17.86;90.83;95738.72;5190954;57;20136;-72
2021/07/25 04:33:23;;;;;;;6.13;3.50;;;;;;;17.90;91.26;95745.53;5199581;57;20131;-72
2021/07/25 04:38:26;;;;;;;8.27;3.10;;;;;;;17.93;91.94;95757.69;5199901;57;20140;-72
2021/07/25 04:43:30;;;;;;;5.82;3.17;;;;;;;18.06;91.34;95759.84;5201896;57;20144;-71
2021/07/25 04:48:54;;;;;;;9.73;3.28;;;;;;;18.04;91.43;95738.00;5217561;57;20114;-72
2021/07/25 04:54:09;;;;;;;5.30;3.67;;;;;;;18.12;91.01;95761.28;5208773;57;20781;-73
2021/07/25 04:59:19;;;;;;;5.45;2.97;;;;;;;18.04;90.91;95740.81;5199221;57;20627;-72
2021/07/25 05:04:22;;;;;;;3.72;3.05;;;;;;;18.02;91.42;95734.22;5199088;56;20156;-71
2021/07/25 05:09:25;;;;;;;8.27;3.20;;;;;;;18.01;90.83;95719.47;5199091;57;20171;-72
2021/07/25 05:14:36;;;;;;;3.55;2.60;;;;;;;18.22;91.24;95722.53;5199180;56;20141;-72
2021/07/25 05:19:51;;;;;;;4.78;3.13;;;;;;;18.25;91.36;95750.19;5199245;57;20718;-74
2021/07/25 05:24:54;;;;;;;4.47;3.38;;;;;;;18.29;90.91;95738.72;5189896;57;20132;-72
2021/07/25 05:29:58;;;;;;;5.82;3.45;;;;;;;18.48;90.36;95757.06;5199013;56;20123;-72
2021/07/25 05:35:00;;;;;;;6.30;3.15;;;;;;;18.42;89.93;95739.56;5198863;57;20158;-72
2021/07/25 05:40:05;;;;;;;4.85;3.25;;;;;;;18.75;89.95;95718.03;5198640;57;20119;-72
2021/07/25 05:45:08;;;;;;;5.43;3.67;;;;;;;19.34;87.37;95745.63;5198621;57;20131;-73
2021/07/25 05:50:11;;;;;;;9.27;3.30;;;;;;;19.60;86.56;95744.97;5198897;57;20110;-73
2021/07/25 05:55:18;;;;;;;3.80;3.00;;;;;;;19.94;84.73;95757.09;5197744;57;20115;-72
2021/07/25 06:00:20;;;;;;;9.30;2.72;;;;;;;19.97;84.15;95765.19;5199389;57;20123;-73
2021/07/25 06:05:28;;;;;;;3.95;3.10;;;;;;;20.04;84.94;95758.16;5201353;56;20145;-72
2021/07/25 06:10:32;;;;;;;3.60;2.85;;;;;;;20.02;84.45;95775.53;5201713;57;20136;-72
2021/07/25 06:15:35;;;;;;;4.65;2.95;;;;;;;20.11;84.75;95779.19;5192882;57;20123;-72
2021/07/25 06:20:37;;;;;;;3.15;2.63;;;;;;;20.07;84.27;95775.97;5199288;57;20131;-72
2021/07/25 06:25:40;;;;;;;4.78;3.35;;;;;;;20.56;84.27;95765.81;5200314;57;20162;-72
2021/07/25 06:30:42;;;;;;;5.65;3.15;;;;;;;21.21;81.22;95754.44;5201281;57;20137;-73
2021/07/25 06:35:45;;;;;;;4.20;2.53;;;;;;;21.49;79.67;95747.38;5201183;57;20123;-72
2021/07/25 06:40:55;;;;;;;8.98;3.65;;;;;;;21.67;78.96;95740.78;5201180;56;20132;-73
2021/07/25 06:45:57;;;;;;;3.63;2.88;;;;;;;21.68;77.53;95745.13;5200997;57;20707;-72
2021/07/25 06:51:02;;;;;;;5.45;2.70;;;;;;;21.86;76.26;95755.44;5201103;57;20225;-73
2021/07/25 06:56:05;;;;;;;3.10;2.75;;;;;;;22.25;75.66;95746.69;5201264;57;20132;-73
2021/07/25 07:01:09;;;;;;;6.60;2.50;;;;;;;22.43;73.21;95747.72;5200862;57;20123;-72
2021/07/25 07:06:11;;;;;;;4.28;3.10;;;;;;;21.98;75.80;95734.88;5200609;56;20675;-73
2021/07/25 07:11:13;;;;;;;6.22;2.97;;;;;;;22.46;74.54;95736.09;5200588;57;20646;-73
2021/07/25 07:16:16;;;;;;;8.82;3.88;;;;;;;22.98;73.19;95728.47;5198828;57;20166;-72
2021/07/25 07:21:18;;;;;;;5.00;3.17;;;;;;;22.93;72.17;95730.13;5200611;57;20123;-72
2021/07/25 07:26:22;;;;;;;8.50;3.25;;;;;;;22.84;73.01;95725.78;5200330;57;20118;-72
2021/07/25 07:31:24;;;;;;;4.30;2.63;;;;;;;22.57;73.20;95730.16;5200455;57;20137;-73
2021/07/25 07:36:26;;;;;;;6.75;2.95;;;;;;;22.61;73.48;95729.81;5200169;56;20136;-71
2021/07/25 07:41:29;;;;;;;3.40;2.45;;;;;;;22.80;72.49;95739.47;5200655;56;20163;-72
2021/07/25 07:46:31;;;;;;;5.68;2.80;;;;;;;22.47;73.42;95729.19;5199991;57;20557;-73
2021/07/25 07:51:34;;;;;;;3.45;2.80;;;;;;;22.77;72.92;95743.41;5200647;57;20127;-73
2021/07/25 07:56:37;;;;;;;5.53;3.00;;;;;;;23.29;72.87;95752.59;5200060;56;20132;-73
2021/07/25 08:01:40;;;;;;;3.25;2.95;;;;;;;23.73;68.58;95747.56;5199429;56;20220;-73
2021/07/25 08:06:44;;;;;;;6.07;3.10;;;;;;;24.13;66.75;95754.19;5181843;57;20690;-73
2021/07/25 08:11:47;;;;;;;5.00;2.58;;;;;;;25.62;60.59;95773.97;5184401;57;20115;-73
2021/07/25 08:16:49;;;;;;;3.25;2.50;;;;;;;24.97;62.23;95789.38;5178774;57;20768;-74
2021/07/25 08:21:52;;;;;;;2.70;2.25;;;;;;;24.32;62.72;95804.59;5179133;57;20710;-73
2021/07/25 08:26:54;;;;;;;3.67;2.70;;;;;;;24.11;63.87;95830.97;5179002;57;20132;-73
2021/07/25 08:31:59;;;;;;;3.17;2.70;;;;;;;24.02;63.78;95830.72;5170768;57;20699;-74
2021/07/25 08:37:01;;;;;;;6.30;2.40;;;;;;;23.57;63.20;95820.16;5183599;57;20119;-73
2021/07/25 08:42:12;;;;;;;5.72;2.88;;;;;;;24.66;62.95;95799.25;5189035;57;20596;-73
2021/07/25 08:47:30;;;;;;;3.22;2.78;;;;;;;24.75;61.13;95809.97;5189916;57;20137;-74
2021/07/25 08:52:35;;;;;;;5.87;3.27;;;;;;;24.33;63.17;95794.81;5181639;57;20222;-74
2021/07/25 08:57:41;;;;;;;3.08;2.75;;;;;;;24.53;61.60;95785.34;5196133;57;20118;-74
2021/07/25 09:02:43;;;;;;;4.07;2.85;;;;;;;24.73;60.48;95773.81;5197954;57;20140;-74
2021/07/25 09:07:50;;;;;;;5.18;2.70;;;;;;;25.26;62.62;95779.25;5201276;56;20123;-74
2021/07/25 09:12:55;;;;;;;3.38;2.45;;;;;;;26.18;61.05;95771.66;5203545;56;20119;-74
2021/07/25 09:17:59;;;;;;;4.38;2.80;;;;;;;25.42;59.01;95777.84;5203276;56;20135;-74
2021/07/25 09:23:13;;;;;;;3.03;2.58;;;;;;;25.83;60.32;95770.78;5199641;56;20660;-73
2021/07/25 09:28:33;;;;;;;3.22;2.42;;;;;;;26.03;59.79;95769.69;5190948;56;20682;-74
2021/07/25 09:33:36;;;;;;;6.65;2.83;;;;;;;25.92;59.08;95753.16;5189225;56;20762;-74
2021/07/25 09:38:39;;;;;;;4.80;2.67;;;;;;;26.39;59.89;95746.53;5205298;56;20136;-74
2021/07/25 09:43:42;;;;;;;2.60;2.40;;;;;;;25.72;60.32;95750.69;5206003;56;20141;-74
2021/07/25 09:48:55;;;;;;;4.00;2.80;;;;;;;25.23;61.75;95754.97;5197784;56;20123;-74
2021/07/25 09:54:02;;;;;;;4.05;2.15;;;;;;;25.54;63.41;95755.53;5206171;56;20118;-74
2021/07/25 09:59:22;;;;;;;2.63;2.10;;;;;;;26.26;58.66;95750.44;5231414;56;20132;-74
2021/07/25 10:04:24;;;;;;;4.18;2.38;;;;;;;26.81;57.30;95747.22;5223480;56;20122;-74
2021/07/25 10:09:27;;;;;;;3.75;2.67;;;;;;;25.40;59.51;95740.13;5201315;56;20687;-75
2021/07/25 10:14:31;;;;;;;3.83;2.55;;;;;;;25.59;59.97;95718.53;5200244;56;20128;-73
2021/07/25 10:19:39;;;;;;;6.35;2.70;;;;;;;25.89;62.58;95711.13;5197486;56;20125;-75
2021/07/25 10:24:49;;;;;;;5.93;2.70;;;;;;;26.70;58.29;95693.84;5208864;56;20150;-73
2021/07/25 10:29:53;;;;;;;5.05;2.80;;;;;;;26.28;56.01;95696.03;5199735;57;20660;-74
2021/07/25 10:34:57;;;;;;;2.47;2.05;;;;;;;27.28;56.88;95705.56;5196722;57;20127;-75
2021/07/25 10:40:01;;;;;;;2.53;2.00;;;;;;;27.42;56.63;95701.06;5177706;57;20127;-73
2021/07/25 10:45:04;;;;;;;2.42;2.15;;;;;;;27.15;55.30;95694.59;5187259;57;20285;-73
2021/07/25 10:50:20;;;;;;;2.40;2.20;;;;;;;27.70;54.72;95680.56;5196040;57;20119;-74
2021/07/25 10:55:35;;;;;;;3.45;2.20;;;;;;;27.67;54.74;95670.38;5196873;57;20119;-75
2021/07/25 11:00:37;;;;;;;2.75;2.50;;;;;;;27.81;54.14;95668.63;5197832;57;20237;-73
2021/07/25 11:05:59;;;;;;;2.25;2.05;;;;;;;28.68;53.01;95672.34;5183684;56;20149;-73
2021/07/25 11:11:36;;;;;;;4.10;2.60;;;;;;;28.45;50.96;95680.56;5185834;57;20619;-75
2021/07/25 11:16:44;;;;;;;3.10;2.15;;;;;;;28.47;50.07;95686.41;5180005;57;20123;-74
2021/07/25 11:21:53;;;;;;;;;;;;;;;26.63;53.62;95686.19;5188319;57;20680;-75
2021/07/25 11:27:04;;;;;;;2.50;2.30;;;;;;;27.81;52.45;95690.59;5188406;57;19980;-74
2021/07/25 11:32:37;;;;;;;2.72;2.42;;;;;;;28.10;53.09;95686.50;5186206;57;20987;-73
2021/07/25 11:37:40;;;;;;;2.58;2.38;;;;;;;27.83;50.99;95670.88;5178640;57;20127;-74
2021/07/25 11:42:46;;;;;;;2.90;2.10;;;;;;;28.51;50.87;95678.91;5179614;57;20177;-74
2021/07/25 11:47:48;;;;;;;3.35;2.83;;;;;;;29.35;50.56;95675.09;5196291;56;20109;-74
2021/07/25 11:52:50;;;;;;;2.22;2.00;;;;;;;28.92;49.92;95672.03;5185491;57;20612;-75
2021/07/25 11:58:08;;;;;;;3.92;2.42;;;;;;;28.70;51.08;95683.88;5182261;57;20155;-75
2021/07/25 12:03:10;;;;;;;2.50;2.20;;;;;;;27.44;51.06;95684.19;5182810;56;20275;-75
2021/07/25 12:08:14;;;;;;;4.43;2.35;;;;;;;28.32;52.33;95670.38;5185324;56;20128;-77
2021/07/25 12:13:18;;;;;;;2.65;2.35;;;;;;;27.73;50.74;95673.66;5187832;56;20123;-74
2021/07/25 12:18:28;;;;;;;3.28;2.50;;;;;;;26.93;53.17;95677.34;5186891;57;20592;-77
2021/07/25 12:23:37;;;;;;;2.65;2.40;;;;;;;26.67;52.33;95677.25;5176346;57;20566;-77
2021/07/25 12:28:39;;;;;;;4.03;2.30;;;;;;;27.13;53.14;95677.44;5184861;56;20123;-76
2021/07/25 12:33:42;;;;;;;2.50;2.28;;;;;;;27.02;55.97;95681.56;5199287;56;20602;-75
2021/07/25 12:38:44;;;;;;;3.65;2.60;;;;;;;26.90;52.76;95687.00;5187406;56;20695;-75
2021/07/25 12:43:59;;;;;;;3.92;2.80;;;;;;;26.89;51.72;95682.66;5185823;56;20250;-77
2021/07/25 12:49:04;;;;;;;2.25;2.05;;;;;;;26.51;55.36;95685.19;5186908;56;20118;-75
2021/07/25 12:54:06;;;;;;;2.70;2.50;;;;;;;26.10;54.03;95686.00;5194801;56;20127;-76
2021/07/25 12:59:10;;;;;;;4.32;2.45;;;;;;;26.30;55.02;95679.94;5188682;56;20132;-76
2021/07/25 13:04:13;;;;;;;4.68;2.75;;;;;;;26.05;56.77;95670.75;5198249;56;20150;-76
2021/07/25 13:09:17;;;;;;;4.75;2.90;;;;;;;25.00;65.67;95663.84;5194923;56;20127;-75
2021/07/25 13:14:26;;;;;;;4.28;3.38;;;;;;;24.68;66.97;95666.63;5198509;57;20127;-75
2021/07/25 13:19:29;;;;;;;3.28;2.97;;;;;;;24.69;68.18;95656.84;5201480;56;20123;-76
2021/07/25 13:24:31;;;;;;;5.95;3.60;;;;;;;24.52;68.16;95653.88;5201830;57;20249;-76
2021/07/25 13:29:35;;;;;;;4.05;3.60;;;;;;;24.21;68.21;95673.03;5202093;57;20110;-76
2021/07/25 13:34:37;;;;;;;8.40;3.85;;;;;;;24.44;67.23;95679.38;5193255;56;20124;-76
2021/07/25 13:39:40;;;;;;;5.55;3.28;;;;;;;24.58;66.35;95691.19;5201929;57;20885;-75
2021/07/25 13:44:42;;;;;;;6.82;3.80;;;;;;;24.56;66.99;95705.13;5193614;57;20150;-76
2021/07/25 13:49:44;;;;;;;3.53;3.22;;;;;;;24.46;67.36;95685.19;5192995;57;20127;-76
2021/07/25 13:54:47;;;;;;;4.05;3.42;;;;;;;24.49;67.21;95683.31;5201452;56;20132;-73
2021/07/25 13:59:49;;;;;;;5.13;3.60;;;;;;;24.41;66.67;95691.03;5202384;56;20172;-76
2021/07/25 14:04:54;;;;;;;7.30;3.42;;;;;;;24.56;66.16;95693.81;5193763;57;20124;-76
2021/07/25 14:09:56;;;;;;;3.80;3.20;;;;;;;24.24;69.15;95678.28;5201895;57;20127;-77
2021/07/25 14:14:59;;;;;;;7.63;3.75;;;;;;;24.78;64.70;95699.41;5201713;56;20149;-76
2021/07/25 14:20:03;;;;;;;5.35;3.50;;;;;;;24.36;65.57;95700.50;5201871;57;20119;-76
2021/07/25 14:25:07;;;;;;;6.43;3.50;;;;;;;24.14;65.75;95716.91;5202784;57;20132;-73
2021/07/25 14:30:10;;;;;;;3.75;3.42;;;;;;;24.00;65.36;95703.53;5202077;57;20774;-75
2021/07/25 14:35:13;;;;;;;3.42;3.13;;;;;;;25.98;60.73;95722.56;5201494;57;20131;-76
2021/07/25 14:40:16;;;;;;;3.75;2.88;;;;;;;25.70;60.51;95713.72;5195851;57;20159;-76
2021/07/25 14:45:18;;;;;;;4.05;3.42;;;;;;;25.54;59.68;95702.53;5194518;56;20869;-77
2021/07/25 14:50:21;;;;;;;3.80;2.67;;;;;;;25.06;63.52;95695.47;5197264;56;20128;-77
2021/07/25 14:55:23;;;;;;;6.45;2.67;;;;;;;24.89;62.13;95684.84;5196144;57;20647;-77
2021/07/25 15:00:25;;;;;;;3.65;2.80;;;;;;;24.84;61.20;95682.22;5197779;56;20122;-77
2021/07/25 15:05:29;;;;;;;2.72;2.42;;;;;;;24.84;60.24;95693.53;5200757;56;20149;-76
2021/07/25 15:10:31;;;;;;;3.35;3.05;;;;;;;24.86;60.53;95705.00;5201145;56;20143;-76
2021/07/25 15:15:34;;;;;;;2.97;2.60;;;;;;;25.06;58.90;95708.88;5220047;57;20128;-76
2021/07/25 15:20:41;;;;;;;3.63;2.80;;;;;;;24.24;59.90;95700.88;5224607;56;20207;-77
2021/07/25 15:25:44;;;;;;;2.97;2.33;;;;;;;24.27;59.34;95696.16;5194166;56;20216;-74
2021/07/25 15:30:46;;;;;;;3.83;1.90;;;;;;;24.20;59.40;95711.81;5191688;57;20137;-77
2021/07/25 15:35:48;;;;;;;2.20;2.10;;;;;;;24.10;59.05;95699.59;5185870;56;20678;-75
2021/07/25 15:40:51;;;;;;;2.15;1.95;;;;;;;23.99;58.88;95716.91;5190861;57;20128;-76
2021/07/25 15:46:04;;;;;;;2.13;1.73;;;;;;;23.81;57.56;95709.59;5200018;57;20177;-77
2021/07/25 15:51:11;;;;;;;2.40;2.20;;;;;;;23.51;61.00;95701.13;5184598;57;20229;-76
2021/07/25 15:56:13;;;;;;;2.33;1.88;;;;;;;23.78;59.50;95724.06;5192620;56;20677;-76
2021/07/25 16:01:16;;;;;;;5.18;2.78;;;;;;;23.21;61.34;95715.16;5186124;56;20124;-76
2021/07/25 16:06:20;;;;;;;3.92;2.85;;;;;;;23.26;62.78;95743.19;5189553;56;20242;-77
2021/07/25 16:11:25;;;;;;;2.70;2.50;;;;;;;22.98;61.32;95734.84;5204712;56;20115;-76
2021/07/25 16:16:28;;;;;;;2.30;2.10;;;;;;;23.00;62.97;95737.09;5197006;56;20669;-76
2021/07/25 16:21:30;;;;;;;4.25;2.10;;;;;;;22.88;63.47;95710.56;5200530;56;20222;-75
2021/07/25 16:26:33;;;;;;;1.98;1.77;;;;;;;22.83;64.87;95713.00;5207221;56;20119;-76
2021/07/25 16:31:35;;;;;;;2.20;2.00;;;;;;;22.76;66.93;95698.91;5205183;56;20113;-76
2021/07/25 16:36:37;;;;;;;4.03;2.00;;;;;;;22.54;67.87;95629.91;5199041;56;20518;-75
2021/07/25 16:41:40;;;;;;;4.15;2.85;;;;;;;22.25;75.90;95579.88;5204595;56;20109;-75
2021/07/25 16:46:43;;;;;;;2.17;2.05;;;;;;;22.05;75.25;95584.28;5199754;56;20122;-76
2021/07/25 16:51:45;;;;;;;2.45;2.25;;;;;;;22.04;76.61;95596.88;5203229;56;20114;-75
2021/07/25 16:56:47;;;;;;;6.07;2.70;;;;;;;21.21;80.39;95616.75;5205347;56;20131;-75
2021/07/25 17:01:50;;;;;;;2.97;2.70;;;;;;;21.19;80.13;95596.88;5196298;56;20131;-75
2021/07/25 17:06:53;;;;;;;2.80;2.53;;;;;;;21.43;81.10;95590.88;5204592;56;20873;-74
2021/07/25 17:11:55;;;;;;;3.05;2.75;;;;;;;21.67;81.00;95586.91;5204757;56;20105;-74
2021/07/25 17:16:57;;;;;;;2.90;2.70;;;;;;;22.10;80.08;95617.91;5188648;57;20128;-75
2021/07/25 17:22:00;;;;;;;3.92;2.63;;;;;;;22.71;78.69;95637.84;5198553;57;20137;-75
2021/07/25 17:27:03;;;;;;;5.68;2.55;;;;;;;23.24;75.99;95646.38;5197105;56;20132;-75
2021/07/25 17:32:05;;;;;;;5.85;2.70;;;;;;;23.79;73.32;95675.53;5193012;56;20620;-75
2021/07/25 17:37:08;;;;;;;2.97;2.67;;;;;;;23.80;71.93;95691.16;5190325;56;20123;-73
2021/07/25 17:42:10;;;;;;;5.68;3.10;;;;;;;23.91;71.17;95710.50;5183779;56;20119;-74
2021/07/25 17:47:12;;;;;;;4.88;2.70;;;;;;;23.85;70.14;95712.78;5188589;56;20124;-75
2021/07/25 17:52:15;;;;;;;4.53;2.97;;;;;;;23.45;70.29;95723.13;5184941;56;20136;-74
2021/07/25 17:57:17;;;;;;;3.85;2.85;;;;;;;23.52;72.16;95736.47;5180969;57;20146;-75
2021/07/25 18:02:20;;;;;;;2.95;2.70;;;;;;;23.29;71.94;95744.84;5190060;56;20121;-75
2021/07/25 18:07:22;;;;;;;5.35;2.83;;;;;;;23.14;74.28;95758.94;5185002;57;20127;-75
2021/07/25 18:12:25;;;;;;;3.50;3.20;;;;;;;22.94;74.77;95779.53;5200794;57;20651;-73
2021/07/25 18:17:28;;;;;;;3.30;2.78;;;;;;;22.91;74.53;95780.63;5193607;56;20583;-75
2021/07/25 18:22:30;;;;;;;3.42;3.10;;;;;;;22.58;75.97;95793.63;5186271;57;20150;-75
2021/07/25 18:27:32;;;;;;;2.97;2.58;;;;;;;22.42;75.91;95805.34;5187345;56;20149;-74
2021/07/25 18:32:35;;;;;;;3.30;2.85;;;;;;;22.12;80.21;95805.88;5189908;57;20172;-75
2021/07/25 18:37:37;;;;;;;5.85;2.95;;;;;;;21.93;79.76;95806.13;5189338;57;20129;-75
2021/07/25 18:42:39;;;;;;;2.92;2.72;;;;;;;21.92;79.40;95815.09;5190501;56;20127;-75
2021/07/25 18:47:42;;;;;;;6.10;3.13;;;;;;;21.82;80.03;95800.00;5199449;56;20141;-75
2021/07/25 18:52:44;;;;;;;3.35;3.05;;;;;;;21.50;81.35;95805.13;5199881;56;20146;-74
2021/07/25 18:57:47;;;;;;;3.42;3.13;;;;;;;21.20;82.04;95781.03;5198824;57;20137;-74
2021/07/25 19:02:49;;;;;;;5.53;3.13;;;;;;;20.95;83.56;95793.84;5195737;56;20125;-74
2021/07/25 19:07:53;;;;;;;3.30;3.00;;;;;;;20.85;84.39;95789.22;5198793;56;20219;-74
2021/07/25 19:12:58;;;;;;;5.88;2.70;;;;;;;20.75;84.72;95786.13;5187407;57;20141;-74
2021/07/25 19:18:00;;;;;;;3.90;3.45;;;;;;;20.57;85.44;95781.38;5179158;57;20976;-75
2021/07/25 19:23:03;;;;;;;5.75;3.42;;;;;;;20.60;86.04;95786.66;5181188;57;20137;-73
2021/07/25 19:28:05;;;;;;;4.53;3.30;;;;;;;20.62;85.62;95784.09;5182984;56;20119;-74
2021/07/25 19:33:07;;;;;;;3.38;3.08;;;;;;;20.64;85.91;95781.50;5178175;56;20114;-73
2021/07/25 19:38:10;;;;;;;11.60;3.58;;;;;;;20.55;85.97;95798.03;5184930;57;20129;-74
2021/07/25 23:25:00;;;;;;;8.10;3.72;;;;;;;17.90;89.87;95846.16;6454480;45;20095;-74
2021/07/25 23:30:03;;;;;;;11.95;3.92;;;;;;;18.02;90.69;95851.63;6440745;46;20090;-75
2021/07/25 23:35:06;;;;;;;6.85;3.55;;;;;;;18.01;90.29;95864.84;6441023;46;20090;-74
2021/07/25 23:40:09;;;;;;;7.82;4.00;;;;;;;17.85;90.06;95858.13;6442092;46;20532;-75
2021/07/25 23:45:12;;;;;;;4.03;3.50;;;;;;;17.77;90.83;95859.22;6442803;46;20090;-74
2021/07/25 23:50:14;;;;;;;4.38;3.97;;;;;;;17.68;92.13;95845.59;6441887;46;20187;-74
2021/07/25 23:55:17;;;;;;;4.85;4.07;;;;;;;17.70;91.91;95860.56;6442191;46;20108;-74
